createdAt,value
2024-04-07T00:00:08.287Z,660.00
2024-04-07T00:01:08.325Z,660.00
2024-04-07T00:02:08.400Z,652.00
2024-04-07T00:03:08.454Z,663.00
2024-04-07T00:04:08.539Z,661.00
2024-04-07T00:05:08.560Z,660.00
2024-04-07T00:06:08.634Z,655.00
2024-04-07T00:07:08.678Z,661.00
2024-04-07T00:08:08.731Z,655.00
2024-04-07T00:09:08.760Z,653.00
2024-04-07T00:10:08.803Z,657.00
2024-04-07T00:11:08.858Z,660.00
2024-04-07T00:12:08.916Z,660.00
2024-04-07T00:13:08.946Z,659.00
2024-04-07T00:14:09.056Z,659.00
2024-04-07T00:15:09.047Z,660.00
2024-04-07T00:16:09.110Z,659.00
2024-04-07T00:17:09.205Z,662.00
2024-04-07T00:18:09.171Z,652.00
2024-04-07T00:19:09.253Z,660.00
2024-04-07T00:20:09.294Z,648.00
2024-04-07T00:21:09.328Z,653.00
2024-04-07T00:22:09.388Z,663.00
2024-04-07T00:23:09.438Z,656.00
2024-04-07T00:24:09.533Z,652.00
2024-04-07T00:25:09.575Z,660.00
2024-04-07T00:26:09.614Z,658.00
2024-04-07T00:27:09.682Z,654.00
2024-04-07T00:28:09.736Z,659.00
2024-04-07T00:29:09.787Z,654.00
2024-04-07T00:30:09.848Z,660.00
2024-04-07T00:31:09.894Z,661.00
2024-04-07T00:32:09.944Z,655.00
2024-04-07T00:33:10.011Z,657.00
2024-04-07T00:34:10.054Z,659.00
2024-04-07T00:35:10.129Z,661.00
2024-04-07T00:36:10.164Z,652.00
2024-04-07T00:37:10.237Z,661.00
2024-04-07T00:38:10.310Z,655.00
2024-04-07T00:39:10.365Z,650.00
2024-04-07T00:40:10.425Z,660.00
2024-04-07T00:41:10.468Z,660.00
2024-04-07T00:42:10.539Z,662.00
2024-04-07T00:43:10.591Z,655.00
2024-04-07T00:44:10.661Z,660.00
2024-04-07T00:45:10.706Z,657.00
2024-04-07T00:46:10.774Z,658.00
2024-04-07T00:47:10.830Z,654.00
2024-04-07T00:48:10.890Z,660.00
2024-04-07T00:49:10.929Z,660.00
2024-04-07T00:50:11.516Z,653.00
2024-04-07T00:51:11.004Z,660.00
2024-04-07T00:52:11.091Z,662.00
2024-04-07T00:53:11.106Z,660.00
2024-04-07T00:54:11.156Z,660.00
2024-04-07T00:55:11.204Z,660.00
2024-04-07T00:56:11.252Z,660.00
2024-04-07T00:57:11.287Z,656.00
2024-04-07T00:58:12.011Z,655.00
2024-04-07T00:59:11.374Z,655.00
2024-04-07T01:00:11.443Z,661.00
2024-04-07T01:01:11.482Z,656.00
2024-04-07T01:02:11.571Z,663.00
2024-04-07T01:03:11.603Z,658.00
2024-04-07T01:04:11.670Z,660.00
2024-04-07T01:05:11.719Z,659.00
2024-04-07T01:06:11.790Z,660.00
2024-04-07T01:07:16.871Z,658.00
2024-04-07T01:08:11.843Z,658.00
2024-04-07T01:09:11.848Z,659.00
2024-04-07T01:10:11.859Z,659.00
2024-04-07T01:11:11.856Z,660.00
2024-04-07T01:12:11.879Z,660.00
2024-04-07T01:13:11.844Z,662.00
2024-04-07T01:14:11.876Z,661.00
2024-04-07T01:15:11.920Z,659.00
2024-04-07T01:16:11.992Z,663.00
2024-04-07T01:17:12.070Z,657.00
2024-04-07T01:18:12.116Z,660.00
2024-04-07T01:19:12.185Z,658.00
2024-04-07T01:20:12.263Z,659.00
2024-04-07T01:21:12.328Z,655.00
2024-04-07T01:22:12.382Z,660.00
2024-04-07T01:23:12.419Z,661.00
2024-04-07T01:24:12.507Z,656.00
2024-04-07T01:25:12.532Z,660.00
2024-04-07T01:26:12.582Z,661.00
2024-04-07T01:27:12.663Z,659.00
2024-04-07T01:28:12.692Z,658.00
2024-04-07T01:29:12.735Z,658.00
2024-04-07T01:30:12.814Z,659.00
2024-04-07T01:31:12.871Z,656.00
2024-04-07T01:32:12.937Z,656.00
2024-04-07T01:33:12.994Z,663.00
2024-04-07T01:34:13.065Z,662.00
2024-04-07T01:35:13.145Z,662.00
2024-04-07T01:36:13.215Z,661.00
2024-04-07T01:37:13.277Z,659.00
2024-04-07T01:38:13.332Z,660.00
2024-04-07T01:39:13.409Z,660.00
2024-04-07T01:40:13.479Z,662.00
2024-04-07T01:41:13.531Z,660.00
2024-04-07T01:42:13.626Z,657.00
2024-04-07T01:43:13.674Z,665.00
2024-04-07T01:44:13.743Z,657.00
2024-04-07T01:45:13.781Z,663.00
2024-04-07T01:46:13.844Z,660.00
2024-04-07T01:47:23.950Z,664.00
2024-04-07T01:48:13.903Z,664.00
2024-04-07T01:49:13.912Z,661.00
2024-04-07T01:50:13.926Z,664.00
2024-04-07T01:51:13.906Z,664.00
2024-04-07T01:52:13.912Z,663.00
2024-04-07T01:53:13.913Z,662.00
2024-04-07T01:54:13.919Z,663.00
2024-04-07T01:55:13.929Z,661.00
2024-04-07T01:56:13.912Z,662.00
2024-04-07T01:57:13.911Z,664.00
2024-04-07T01:58:13.924Z,662.00
2024-04-07T01:59:13.912Z,663.00
2024-04-07T02:00:13.926Z,659.00
2024-04-07T02:01:13.923Z,661.00
2024-04-07T02:02:13.932Z,666.00
2024-04-07T02:03:13.935Z,660.00
2024-04-07T02:04:13.924Z,661.00
2024-04-07T02:05:13.920Z,661.00
2024-04-07T02:06:13.921Z,660.00
2024-04-07T02:07:13.954Z,660.00
2024-04-07T02:08:13.958Z,659.00
2024-04-07T02:09:14.013Z,662.00
2024-04-07T02:10:14.090Z,663.00
2024-04-07T02:11:14.160Z,661.00
2024-04-07T02:12:14.245Z,661.00
2024-04-07T02:13:14.314Z,661.00
2024-04-07T02:14:14.386Z,662.00
2024-04-07T02:15:14.431Z,661.00
2024-04-07T02:16:14.503Z,660.00
2024-04-07T02:17:14.584Z,659.00
2024-04-07T02:18:14.618Z,655.00
2024-04-07T02:19:14.700Z,661.00
2024-04-07T02:20:14.739Z,663.00
2024-04-07T02:21:14.807Z,660.00
2024-04-07T02:22:14.872Z,659.00
2024-04-07T02:23:14.929Z,664.00
2024-04-07T02:24:14.998Z,663.00
2024-04-07T02:25:15.078Z,659.00
2024-04-07T02:26:15.132Z,659.00
2024-04-07T02:27:15.222Z,658.00
2024-04-07T02:28:15.282Z,661.00
2024-04-07T02:29:15.339Z,661.00
2024-04-07T02:30:15.413Z,661.00
2024-04-07T02:31:15.490Z,660.00
2024-04-07T02:32:15.562Z,663.00
2024-04-07T02:33:15.613Z,655.00
2024-04-07T02:34:15.678Z,663.00
2024-04-07T02:35:15.733Z,663.00
2024-04-07T02:36:16.552Z,660.00
2024-04-07T02:37:15.838Z,657.00
2024-04-07T02:38:15.912Z,656.00
2024-04-07T02:39:15.959Z,661.00
2024-04-07T02:40:16.027Z,659.00
2024-04-07T02:41:16.071Z,660.00
2024-04-07T02:42:16.143Z,661.00
2024-04-07T02:43:16.215Z,661.00
2024-04-07T02:44:16.277Z,661.00
2024-04-07T02:45:16.332Z,659.00
2024-04-07T02:46:16.411Z,659.00
2024-04-07T02:47:16.482Z,662.00
2024-04-07T02:48:16.567Z,656.00
2024-04-07T02:49:16.622Z,657.00
2024-04-07T02:50:16.704Z,664.00
2024-04-07T02:51:16.753Z,657.00
2024-04-07T02:52:16.820Z,656.00
2024-04-07T02:53:16.860Z,660.00
2024-04-07T02:54:16.938Z,659.00
2024-04-07T02:55:16.987Z,660.00
2024-04-07T02:56:17.056Z,659.00
2024-04-07T02:57:17.090Z,659.00
2024-04-07T02:58:17.167Z,660.00
2024-04-07T02:59:17.213Z,658.00
2024-04-07T03:00:17.294Z,659.00
2024-04-07T03:01:18.367Z,656.00
2024-04-07T03:02:17.451Z,658.00
2024-04-07T03:03:17.500Z,656.00
2024-04-07T03:04:17.574Z,655.00
2024-04-07T03:05:17.652Z,655.00
2024-04-07T03:06:17.695Z,659.00
2024-04-07T03:07:17.767Z,657.00
2024-04-07T03:08:17.828Z,655.00
2024-04-07T03:09:17.889Z,654.00
2024-04-07T03:10:17.963Z,658.00
2024-04-07T03:11:18.026Z,653.00
2024-04-07T03:12:18.089Z,652.00
2024-04-07T03:13:18.171Z,658.00
2024-04-07T03:14:18.231Z,657.00
2024-04-07T03:15:18.330Z,654.00
2024-04-07T03:16:18.385Z,658.00
2024-04-07T03:17:18.456Z,655.00
2024-04-07T03:18:18.523Z,658.00
2024-04-07T03:19:18.618Z,656.00
2024-04-07T03:20:18.678Z,654.00
2024-04-07T03:21:18.733Z,658.00
2024-04-07T03:22:18.823Z,655.00
2024-04-07T03:23:18.883Z,657.00
2024-04-07T03:24:18.956Z,655.00
2024-04-07T03:25:18.984Z,655.00
2024-04-07T03:26:19.066Z,656.00
2024-04-07T03:27:19.136Z,653.00
2024-04-07T03:28:19.186Z,654.00
2024-04-07T03:29:19.255Z,654.00
2024-04-07T03:30:19.308Z,655.00
2024-04-07T03:31:19.368Z,652.00
2024-04-07T03:32:19.459Z,653.00
2024-04-07T03:33:19.537Z,651.00
2024-04-07T03:34:19.571Z,654.00
2024-04-07T03:35:19.635Z,655.00
2024-04-07T03:36:19.681Z,656.00
2024-04-07T03:37:19.822Z,651.00
2024-04-07T03:38:19.846Z,656.00
2024-04-07T03:39:19.892Z,655.00
2024-04-07T03:40:19.991Z,652.00
2024-04-07T03:41:20.033Z,651.00
2024-04-07T03:42:20.082Z,652.00
2024-04-07T03:43:20.170Z,649.00
2024-04-07T03:44:20.270Z,656.00
2024-04-07T03:45:20.287Z,652.00
2024-04-07T03:46:20.407Z,655.00
2024-04-07T03:47:20.417Z,654.00
2024-04-07T03:48:20.489Z,655.00
2024-04-07T03:49:20.539Z,654.00
2024-04-07T03:50:20.600Z,652.00
2024-04-07T03:51:20.678Z,653.00
2024-04-07T03:52:20.758Z,654.00
2024-04-07T03:53:20.803Z,652.00
2024-04-07T03:54:20.880Z,652.00
2024-04-07T03:55:20.943Z,649.00
2024-04-07T03:56:21.016Z,651.00
2024-04-07T03:57:21.069Z,651.00
2024-04-07T03:58:21.123Z,649.00
2024-04-07T03:59:21.261Z,649.00
2024-04-07T04:00:21.243Z,651.00
2024-04-07T04:01:21.347Z,650.00
2024-04-07T04:02:21.389Z,651.00
2024-04-07T04:03:23.785Z,649.00
2024-04-07T04:04:21.454Z,651.00
2024-04-07T04:05:21.472Z,653.00
2024-04-07T04:06:21.485Z,653.00
2024-04-07T04:07:21.499Z,653.00
2024-04-07T04:08:21.465Z,651.00
2024-04-07T04:09:21.474Z,653.00
2024-04-07T04:10:21.473Z,653.00
2024-04-07T04:11:21.477Z,650.00
2024-04-07T04:12:21.465Z,651.00
2024-04-07T04:13:21.469Z,652.00
2024-04-07T04:14:21.478Z,654.00
2024-04-07T04:15:21.499Z,653.00
2024-04-07T04:16:21.478Z,649.00
2024-04-07T04:17:21.511Z,649.00
2024-04-07T04:18:21.483Z,650.00
2024-04-07T04:19:21.488Z,652.00
2024-04-07T04:20:21.482Z,648.00
2024-04-07T04:21:21.484Z,648.00
2024-04-07T04:22:21.489Z,649.00
2024-04-07T04:23:21.490Z,647.00
2024-04-07T04:24:21.486Z,649.00
2024-04-07T04:25:21.498Z,651.00
2024-04-07T04:26:21.511Z,648.00
2024-04-07T04:27:21.498Z,649.00
2024-04-07T04:28:21.492Z,652.00
2024-04-07T04:29:21.538Z,647.00
2024-04-07T04:30:21.612Z,650.00
2024-04-07T04:31:21.681Z,649.00
2024-04-07T04:32:21.755Z,648.00
2024-04-07T04:33:21.806Z,647.00
2024-04-07T04:34:22.597Z,649.00
2024-04-07T04:35:21.948Z,649.00
2024-04-07T04:36:22.018Z,647.00
2024-04-07T04:37:22.093Z,649.00
2024-04-07T04:38:22.152Z,648.00
2024-04-07T04:39:22.212Z,649.00
2024-04-07T04:40:22.286Z,647.00
2024-04-07T04:41:22.356Z,649.00
2024-04-07T04:42:38.014Z,600.00
2024-04-07T04:43:29.932Z,600.00
2024-04-07T04:44:29.931Z,600.00
2024-04-07T04:45:29.933Z,600.00
2024-04-07T04:46:29.949Z,600.00
2024-04-07T04:47:29.958Z,600.00
2024-04-07T04:48:29.972Z,603.00
2024-04-07T04:49:30.028Z,600.00
2024-04-07T04:50:30.115Z,602.00
2024-04-07T04:51:30.182Z,601.00
2024-04-07T04:52:40.288Z,605.00
2024-04-07T04:53:30.256Z,605.00
2024-04-07T04:54:30.264Z,603.00
2024-04-07T04:55:30.273Z,605.00
2024-04-07T04:56:30.268Z,606.00
2024-04-07T04:57:30.263Z,606.00
2024-04-07T04:58:30.262Z,601.00
2024-04-07T04:59:30.270Z,601.00
2024-04-07T05:00:30.277Z,603.00
2024-04-07T05:01:30.282Z,601.00
2024-04-07T05:02:30.273Z,602.00
2024-04-07T05:03:30.259Z,603.00
2024-04-07T05:04:30.263Z,602.00
2024-04-07T05:05:30.274Z,605.00
2024-04-07T05:06:30.279Z,606.00
2024-04-07T05:07:30.285Z,606.00
2024-04-07T05:08:30.260Z,602.00
2024-04-07T05:09:30.259Z,601.00
2024-04-07T05:10:30.266Z,603.00
2024-04-07T05:11:30.270Z,603.00
2024-04-07T05:12:35.306Z,602.00
2024-04-07T05:13:30.304Z,602.00
2024-04-07T05:14:30.307Z,602.00
2024-04-07T05:15:30.275Z,602.00
2024-04-07T05:16:30.310Z,603.00
2024-04-07T05:17:35.347Z,602.00
2024-04-07T05:18:30.295Z,602.00
2024-04-07T05:19:30.297Z,602.00
2024-04-07T05:20:30.294Z,602.00
2024-04-07T05:21:30.290Z,603.00
2024-04-07T05:22:35.314Z,600.00
2024-04-07T05:23:30.289Z,599.00
2024-04-07T05:24:30.294Z,602.00
2024-04-07T05:25:30.297Z,602.00
2024-04-07T05:26:30.307Z,600.00
2024-04-07T05:27:35.327Z,603.00
2024-04-07T05:28:30.326Z,602.00
2024-04-07T05:29:30.291Z,597.00
2024-04-07T05:30:30.300Z,601.00
2024-04-07T05:31:30.303Z,600.00
2024-04-07T05:32:30.316Z,599.00
2024-04-07T05:33:30.376Z,600.00
2024-04-07T05:34:30.430Z,602.00
2024-04-07T05:35:30.507Z,603.00
2024-04-07T05:36:30.586Z,604.00
2024-04-07T05:37:30.656Z,605.00
2024-04-07T05:38:30.718Z,604.00
2024-04-07T05:39:30.809Z,601.00
2024-04-07T05:40:30.855Z,605.00
2024-04-07T05:41:30.932Z,603.00
2024-04-07T05:42:31.002Z,606.00
2024-04-07T05:43:31.064Z,603.00
2024-04-07T05:44:31.131Z,600.00
2024-04-07T05:45:31.195Z,603.00
2024-04-07T05:46:31.260Z,603.00
2024-04-07T05:47:31.330Z,605.00
2024-04-07T05:48:31.379Z,602.00
2024-04-07T05:49:31.446Z,604.00
2024-04-07T05:50:31.511Z,606.00
2024-04-07T05:51:31.588Z,602.00
2024-04-07T05:52:36.684Z,602.00
2024-04-07T05:53:31.670Z,602.00
2024-04-07T05:54:31.673Z,602.00
2024-04-07T05:55:31.667Z,603.00
2024-04-07T05:56:31.662Z,604.00
2024-04-07T05:57:31.660Z,607.00
2024-04-07T05:58:31.808Z,607.00
2024-04-07T05:59:31.779Z,606.00
2024-04-07T06:00:31.799Z,602.00
2024-04-07T06:01:31.856Z,601.00
2024-04-07T06:02:31.901Z,604.00
2024-04-07T06:03:31.984Z,604.00
2024-04-07T06:04:32.018Z,605.00
2024-04-07T06:05:32.095Z,604.00
2024-04-07T06:06:32.163Z,603.00
2024-04-07T06:07:32.242Z,604.00
2024-04-07T06:08:32.316Z,602.00
2024-04-07T06:09:32.387Z,604.00
2024-04-07T06:10:32.457Z,605.00
2024-04-07T06:11:32.528Z,607.00
2024-04-07T06:12:32.581Z,600.00
2024-04-07T06:13:32.628Z,604.00
2024-04-07T06:14:32.685Z,606.00
2024-04-07T06:15:32.739Z,606.00
2024-04-07T06:16:32.805Z,604.00
2024-04-07T06:17:32.862Z,605.00
2024-04-07T06:18:32.927Z,602.00
2024-04-07T06:19:32.987Z,603.00
2024-04-07T06:20:33.049Z,602.00
2024-04-07T06:21:33.092Z,605.00
2024-04-07T06:22:33.158Z,607.00
2024-04-07T06:23:33.231Z,610.00
2024-04-07T06:24:33.279Z,607.00
2024-04-07T06:25:33.322Z,605.00
2024-04-07T06:26:33.392Z,606.00
2024-04-07T06:27:33.457Z,606.00
2024-04-07T06:28:33.506Z,606.00
2024-04-07T06:29:33.554Z,606.00
2024-04-07T06:30:33.625Z,604.00
2024-04-07T06:31:34.313Z,609.00
2024-04-07T06:32:33.788Z,609.00
2024-04-07T06:33:33.788Z,605.00
2024-04-07T06:34:33.855Z,607.00
2024-04-07T06:35:33.916Z,607.00
2024-04-07T06:36:35.777Z,610.00
2024-04-07T06:37:33.963Z,610.00
2024-04-07T06:38:33.960Z,609.00
2024-04-07T06:39:33.951Z,610.00
2024-04-07T06:40:33.955Z,609.00
2024-04-07T06:41:33.962Z,610.00
2024-04-07T06:42:39.006Z,611.00
2024-04-07T06:43:33.968Z,611.00
2024-04-07T06:44:33.960Z,611.00
2024-04-07T06:45:33.960Z,610.00
2024-04-07T06:46:33.967Z,612.00
2024-04-07T06:47:33.977Z,608.00
2024-04-07T06:48:33.981Z,606.00
2024-04-07T06:49:34.022Z,608.00
2024-04-07T06:50:34.081Z,604.00
2024-04-07T06:51:34.147Z,607.00
2024-04-07T06:52:34.182Z,610.00
2024-04-07T06:53:34.220Z,602.00
2024-04-07T06:54:34.247Z,610.00
2024-04-07T06:55:34.311Z,602.00
2024-04-07T06:56:34.374Z,602.00
2024-04-07T06:57:34.410Z,605.00
2024-04-07T06:58:34.463Z,609.00
2024-04-07T06:59:34.532Z,611.00
2024-04-07T07:00:34.596Z,611.00
2024-04-07T07:01:34.602Z,613.00
2024-04-07T07:02:34.695Z,612.00
2024-04-07T07:03:34.687Z,612.00
2024-04-07T07:04:34.731Z,609.00
2024-04-07T07:05:34.779Z,613.00
2024-04-07T07:06:34.845Z,609.00
2024-04-07T07:07:34.924Z,613.00
2024-04-07T07:08:34.930Z,612.00
2024-04-07T07:09:34.973Z,616.00
2024-04-07T07:10:35.014Z,613.00
2024-04-07T07:11:35.072Z,613.00
2024-04-07T07:12:35.129Z,612.00
2024-04-07T07:13:35.162Z,613.00
2024-04-07T07:14:35.199Z,608.00
2024-04-07T07:15:35.253Z,614.00
2024-04-07T07:16:40.047Z,617.00
2024-04-07T07:17:36.279Z,607.00
2024-04-07T07:18:35.282Z,609.00
2024-04-07T07:19:35.284Z,613.00
2024-04-07T07:20:35.292Z,608.00
2024-04-07T07:21:35.283Z,614.00
2024-04-07T07:22:35.289Z,607.00
2024-04-07T07:23:35.294Z,605.00
2024-04-07T07:24:35.299Z,609.00
2024-04-07T07:25:35.317Z,610.00
2024-04-07T07:26:35.313Z,607.00
2024-04-07T07:27:35.317Z,600.00
2024-04-07T07:28:35.300Z,615.00
2024-04-07T07:29:35.302Z,612.00
2024-04-07T07:30:35.360Z,606.00
2024-04-07T07:31:35.382Z,618.00
2024-04-07T07:32:35.419Z,612.00
2024-04-07T07:33:35.462Z,613.00
2024-04-07T07:34:35.504Z,604.00
2024-04-07T07:35:35.550Z,609.00
2024-04-07T07:36:35.596Z,606.00
2024-04-07T07:37:35.654Z,617.00
2024-04-07T07:38:35.701Z,609.00
2024-04-07T07:39:35.746Z,609.00
2024-04-07T07:40:35.781Z,617.00
2024-04-07T07:41:35.820Z,615.00
2024-04-07T07:42:35.864Z,609.00
2024-04-07T07:43:35.898Z,604.00
2024-04-07T07:44:35.939Z,618.00
2024-04-07T07:45:35.957Z,613.00
2024-04-07T07:46:35.970Z,615.00
2024-04-07T07:47:36.002Z,608.00
2024-04-07T07:48:36.032Z,612.00
2024-04-07T07:49:36.053Z,613.00
2024-04-07T07:50:38.324Z,608.00
2024-04-07T07:51:36.092Z,608.00
2024-04-07T07:52:36.095Z,612.00
2024-04-07T07:53:36.103Z,613.00
2024-04-07T07:54:36.085Z,616.00
2024-04-07T07:55:36.097Z,607.00
2024-04-07T07:56:36.096Z,617.00
2024-04-07T07:57:36.098Z,614.00
2024-04-07T07:58:36.183Z,610.00
2024-04-07T07:59:36.108Z,616.00
2024-04-07T08:00:36.109Z,618.00
2024-04-07T08:01:39.087Z,618.00
2024-04-07T08:02:36.120Z,614.00
2024-04-07T08:03:36.132Z,607.00
2024-04-07T08:04:36.149Z,614.00
2024-04-07T08:05:36.122Z,614.00
2024-04-07T08:06:36.127Z,613.00
2024-04-07T08:07:36.131Z,615.00
2024-04-07T08:08:36.112Z,622.00
2024-04-07T08:09:36.116Z,616.00
2024-04-07T08:10:36.111Z,621.00
2024-04-07T08:11:36.121Z,616.00
2024-04-07T08:12:38.501Z,618.00
2024-04-07T08:13:36.284Z,614.00
2024-04-07T08:14:36.318Z,614.00
2024-04-07T08:15:36.359Z,621.00
2024-04-07T08:16:36.357Z,608.00
2024-04-07T08:17:36.401Z,623.00
2024-04-07T08:18:36.513Z,621.00
2024-04-07T08:19:36.528Z,611.00
2024-04-07T08:20:36.548Z,616.00
2024-04-07T08:21:36.598Z,617.00
2024-04-07T08:22:36.618Z,622.00
2024-04-07T08:23:36.653Z,612.00
2024-04-07T08:24:36.678Z,616.00
2024-04-07T08:25:36.728Z,619.00
2024-04-07T08:26:36.779Z,620.00
2024-04-07T08:27:36.796Z,618.00
2024-04-07T08:28:36.783Z,622.00
2024-04-07T08:29:36.823Z,621.00
2024-04-07T08:30:39.397Z,619.00
2024-04-07T08:31:37.014Z,628.00
2024-04-07T08:32:37.122Z,619.00
2024-04-07T08:33:37.079Z,617.00
2024-04-07T08:34:37.089Z,620.00
2024-04-07T08:35:37.140Z,611.00
2024-04-07T08:36:37.165Z,624.00
2024-04-07T08:37:37.191Z,623.00
2024-04-07T08:38:37.224Z,619.00
2024-04-07T08:39:37.266Z,626.00
2024-04-07T08:40:37.297Z,623.00
2024-04-07T08:41:37.332Z,631.00
2024-04-07T08:42:37.335Z,623.00
2024-04-07T08:43:37.357Z,617.00
2024-04-07T08:44:37.392Z,617.00
2024-04-07T08:45:37.420Z,620.00
2024-04-07T08:46:37.434Z,628.00
2024-04-07T08:47:37.459Z,613.00
2024-04-07T08:48:37.460Z,623.00
2024-04-07T08:49:37.488Z,629.00
2024-04-07T08:50:37.607Z,628.00
2024-04-07T08:51:37.716Z,616.00
2024-04-07T08:52:37.723Z,626.00
2024-04-07T08:53:37.735Z,633.00
2024-04-07T08:54:37.769Z,626.00
2024-04-07T08:55:37.795Z,629.00
2024-04-07T08:56:37.801Z,635.00
2024-04-07T08:57:37.824Z,621.00
2024-04-07T08:58:37.863Z,626.00
2024-04-07T08:59:37.909Z,630.00
2024-04-07T09:00:37.919Z,641.00
2024-04-07T09:01:37.944Z,633.00
2024-04-07T09:02:37.955Z,629.00
2024-04-07T09:03:38.035Z,635.00
2024-04-07T09:04:38.005Z,632.00
2024-04-07T09:05:38.051Z,623.00
2024-04-07T09:06:38.157Z,631.00
2024-04-07T09:07:38.272Z,639.00
2024-04-07T09:08:38.392Z,632.00
2024-04-07T09:09:38.511Z,638.00
2024-04-07T09:10:38.546Z,632.00
2024-04-07T09:11:38.578Z,630.00
2024-04-07T09:12:38.538Z,625.00
2024-04-07T09:13:38.563Z,630.00
2024-04-07T09:14:38.599Z,636.00
2024-04-07T09:15:38.617Z,631.00
2024-04-07T09:16:46.189Z,600.00
2024-04-07T09:17:46.185Z,600.00
2024-04-07T09:18:46.186Z,600.00
2024-04-07T09:19:46.193Z,600.00
2024-04-07T09:20:46.183Z,600.00
2024-04-07T09:21:46.190Z,605.00
2024-04-07T09:22:46.199Z,608.00
2024-04-07T09:23:46.199Z,612.00
2024-04-07T09:24:46.192Z,602.00
2024-04-07T09:25:49.131Z,614.00
2024-04-07T09:26:46.204Z,621.00
2024-04-07T09:27:46.212Z,615.00
2024-04-07T09:28:46.214Z,609.00
2024-04-07T09:29:46.207Z,614.00
2024-04-07T09:30:46.199Z,609.00
2024-04-07T09:31:46.214Z,610.00
2024-04-07T09:32:46.211Z,615.00
2024-04-07T09:33:46.218Z,614.00
2024-04-07T09:34:46.245Z,614.00
2024-04-07T09:35:46.220Z,614.00
2024-04-07T09:36:46.220Z,609.00
2024-04-07T09:37:46.215Z,608.00
2024-04-07T09:38:46.220Z,614.00
2024-04-07T09:39:46.225Z,607.00
2024-04-07T09:40:46.237Z,612.00
2024-04-07T09:41:46.234Z,610.00
2024-04-07T09:42:46.253Z,614.00
2024-04-07T09:43:46.249Z,612.00
2024-04-07T09:44:46.236Z,613.00
2024-04-07T09:45:46.243Z,608.00
2024-04-07T09:46:46.237Z,614.00
2024-04-07T09:47:46.245Z,608.00
2024-04-07T09:48:46.246Z,612.00
2024-04-07T09:49:46.234Z,611.00
2024-04-07T09:50:46.239Z,615.00
2024-04-07T09:51:46.233Z,621.00
2024-04-07T09:52:46.234Z,617.00
2024-04-07T09:53:46.234Z,605.00
2024-04-07T09:54:46.250Z,609.00
2024-04-07T09:55:46.239Z,611.00
2024-04-07T09:56:46.251Z,609.00
2024-04-07T09:57:46.249Z,607.00
2024-04-07T09:58:46.253Z,613.00
2024-04-07T09:59:46.252Z,607.00
2024-04-07T10:00:46.258Z,623.00
2024-04-07T10:01:46.271Z,607.00
2024-04-07T10:02:46.250Z,620.00
2024-04-07T10:03:46.257Z,614.00
2024-04-07T10:04:46.263Z,614.00
2024-04-07T10:05:46.257Z,612.00
2024-04-07T10:06:46.261Z,614.00
2024-04-07T10:07:46.255Z,612.00
2024-04-07T10:08:46.261Z,616.00
2024-04-07T10:09:46.272Z,613.00
2024-04-07T10:10:55.281Z,614.00
2024-04-07T10:11:47.270Z,614.00
2024-04-07T10:12:46.259Z,616.00
2024-04-07T10:13:46.265Z,616.00
2024-04-07T10:14:46.269Z,612.00
2024-04-07T10:15:46.276Z,622.00
2024-04-07T10:16:46.282Z,618.00
2024-04-07T10:17:46.270Z,612.00
2024-04-07T10:18:46.292Z,611.00
2024-04-07T10:19:46.276Z,611.00
2024-04-07T10:20:46.286Z,611.00
2024-04-07T10:21:46.292Z,618.00
2024-04-07T10:22:46.285Z,608.00
2024-04-07T10:23:48.924Z,612.00
2024-04-07T10:24:46.289Z,613.00
2024-04-07T10:25:46.298Z,610.00
2024-04-07T10:26:46.278Z,614.00
2024-04-07T10:27:46.283Z,611.00
2024-04-07T10:28:46.306Z,614.00
2024-04-07T10:29:46.295Z,606.00
2024-04-07T10:30:46.301Z,615.00
2024-04-07T10:31:46.306Z,602.00
2024-04-07T10:32:46.289Z,605.00
2024-04-07T10:33:46.298Z,606.00
2024-04-07T10:34:46.303Z,605.00
2024-04-07T10:35:46.304Z,619.00
2024-04-07T10:36:46.305Z,607.00
2024-04-07T10:37:46.306Z,606.00
2024-04-07T10:38:46.319Z,607.00
2024-04-07T10:39:46.302Z,607.00
2024-04-07T10:40:46.315Z,604.00
2024-04-07T10:41:46.321Z,604.00
2024-04-07T10:42:46.332Z,604.00
2024-04-07T10:43:46.320Z,606.00
2024-04-07T10:44:46.331Z,612.00
2024-04-07T10:45:46.321Z,612.00
2024-04-07T10:46:46.339Z,605.00
2024-04-07T10:47:46.335Z,611.00
2024-04-07T10:48:46.343Z,608.00
2024-04-07T10:49:46.323Z,608.00
2024-04-07T10:50:46.339Z,618.00
2024-04-07T10:51:46.339Z,612.00
2024-04-07T10:52:46.361Z,604.00
2024-04-07T10:53:46.347Z,609.00
2024-04-07T10:54:46.356Z,612.00
2024-04-07T10:55:46.335Z,603.00
2024-04-07T10:56:46.340Z,607.00
2024-04-07T10:57:46.346Z,611.00
2024-04-07T10:58:46.347Z,606.00
2024-04-07T10:59:46.342Z,611.00
2024-04-07T11:00:46.348Z,608.00
2024-04-07T11:01:46.334Z,615.00
2024-04-07T11:02:46.340Z,613.00
2024-04-07T11:03:46.350Z,615.00
2024-04-07T11:04:46.345Z,617.00
2024-04-07T11:05:46.357Z,602.00
2024-04-07T11:06:47.084Z,614.00
2024-04-07T11:07:46.340Z,610.00
2024-04-07T11:08:46.347Z,619.00
2024-04-07T11:09:46.350Z,614.00
2024-04-07T11:10:46.408Z,613.00
2024-04-07T11:11:46.363Z,608.00
2024-04-07T11:12:46.347Z,614.00
2024-04-07T11:13:46.346Z,603.00
2024-04-07T11:14:46.348Z,608.00
2024-04-07T11:15:46.361Z,615.00
2024-04-07T11:16:46.363Z,608.00
2024-04-07T11:17:46.373Z,603.00
2024-04-07T11:18:46.362Z,607.00
2024-04-07T11:19:46.370Z,607.00
2024-04-07T11:20:46.360Z,609.00
2024-04-07T11:21:46.364Z,606.00
2024-04-07T11:22:46.370Z,605.00
2024-04-07T11:23:46.761Z,611.00
2024-04-07T11:24:46.384Z,613.00
2024-04-07T11:25:46.379Z,614.00
2024-04-07T11:26:46.387Z,605.00
2024-04-07T11:27:46.364Z,607.00
2024-04-07T11:28:46.375Z,603.00
2024-04-07T11:29:46.380Z,601.00
2024-04-07T11:30:46.400Z,608.00
2024-04-07T11:31:48.062Z,612.00
2024-04-07T11:32:47.388Z,608.00
2024-04-07T11:33:46.385Z,611.00
2024-04-07T11:34:47.846Z,607.00
2024-04-07T11:35:46.400Z,606.00
2024-04-07T11:36:46.390Z,602.00
2024-04-07T11:37:46.392Z,607.00
2024-04-07T11:38:46.407Z,605.00
2024-04-07T11:39:55.715Z,604.00
2024-04-07T11:40:47.407Z,604.00
2024-04-07T11:41:46.410Z,604.00
2024-04-07T11:42:46.425Z,604.00
2024-04-07T11:43:46.404Z,606.00
2024-04-07T11:44:46.411Z,607.00
2024-04-07T11:45:46.416Z,610.00
2024-04-07T11:46:46.414Z,603.00
2024-04-07T11:47:46.420Z,610.00
2024-04-07T11:48:46.434Z,607.00
2024-04-07T11:49:46.433Z,605.00
2024-04-07T11:50:46.414Z,603.00
2024-04-07T11:51:46.419Z,605.00
2024-04-07T11:52:46.424Z,605.00
2024-04-07T11:53:46.527Z,610.00
2024-04-07T11:54:46.440Z,600.00
2024-04-07T11:55:46.421Z,602.00
2024-04-07T11:56:46.431Z,602.00
2024-04-07T11:57:46.437Z,610.00
2024-04-07T11:58:46.441Z,609.00
2024-04-07T11:59:46.444Z,606.00
2024-04-07T12:00:46.448Z,612.00
2024-04-07T12:01:46.439Z,612.00
2024-04-07T12:02:46.469Z,607.00
2024-04-07T12:03:46.540Z,599.00
2024-04-07T12:04:46.561Z,607.00
2024-04-07T12:05:46.554Z,608.00
2024-04-07T12:06:46.580Z,618.00
2024-04-07T12:07:46.580Z,602.00
2024-04-07T12:08:46.691Z,611.00
2024-04-07T12:09:46.677Z,614.00
2024-04-07T12:10:46.687Z,608.00
2024-04-07T12:11:46.688Z,612.00
2024-04-07T12:12:46.696Z,610.00
2024-04-07T12:13:46.724Z,604.00
2024-04-07T12:14:46.856Z,608.00
2024-04-07T12:15:46.938Z,613.00
2024-04-07T12:16:47.062Z,603.00
2024-04-07T12:17:47.162Z,617.00
2024-04-07T12:18:47.271Z,605.00
2024-04-07T12:19:47.275Z,607.00
2024-04-07T12:20:47.298Z,608.00
2024-04-07T12:21:47.270Z,615.00
2024-04-07T12:22:47.273Z,610.00
2024-04-07T12:23:47.307Z,606.00
2024-04-07T12:24:47.414Z,607.00
2024-04-07T12:25:47.519Z,609.00
2024-04-07T12:26:47.608Z,608.00
2024-04-07T12:27:47.713Z,609.00
2024-04-07T12:28:47.713Z,610.00